sensor_id;sensor_type;location;lat;lon;timestamp;pressure;altitude;pressure_sealevel;temperature;humidity
79067;BME280;68470;50.224;14.348;2023-04-23T00:01:05;98817.75;;;10.60;73.10
79067;BME280;68470;50.224;14.348;2023-04-23T00:03:37;98816.16;;;10.28;73.60
79067;BME280;68470;50.224;14.348;2023-04-23T00:06:07;98811.72;;;10.17;74.49
79067;BME280;68470;50.224;14.348;2023-04-23T00:08:39;98799.38;;;10.14;74.32
79067;BME280;68470;50.224;14.348;2023-04-23T00:11:06;98798.25;;;10.05;75.85
79067;BME280;68470;50.224;14.348;2023-04-23T00:13:32;98818.34;;;10.01;77.05
79067;BME280;68470;50.224;14.348;2023-04-23T00:15:59;98787.56;;;9.78;76.12
79067;BME280;68470;50.224;14.348;2023-04-23T00:18:25;98807.91;;;9.77;76.62
79067;BME280;68470;50.224;14.348;2023-04-23T00:20:53;98792.22;;;9.57;77.90
79067;BME280;68470;50.224;14.348;2023-04-23T00:23:19;98806.25;;;9.61;78.58
79067;BME280;68470;50.224;14.348;2023-04-23T00:25:45;98776.00;;;9.51;78.81
79067;BME280;68470;50.224;14.348;2023-04-23T00:28:11;98795.22;;;9.56;78.92
79067;BME280;68470;50.224;14.348;2023-04-23T00:30:37;98785.03;;;9.36;79.66
79067;BME280;68470;50.224;14.348;2023-04-23T00:33:08;98775.94;;;9.15;80.09
79067;BME280;68470;50.224;14.348;2023-04-23T00:35:34;98777.84;;;9.10;79.79
79067;BME280;68470;50.224;14.348;2023-04-23T00:38:00;98774.84;;;9.16;79.71
79067;BME280;68470;50.224;14.348;2023-04-23T00:40:26;98783.63;;;9.18;79.82
79067;BME280;68470;50.224;14.348;2023-04-23T00:42:52;98766.91;;;9.25;78.97
79067;BME280;68470;50.224;14.348;2023-04-23T00:45:19;98768.28;;;9.27;79.44
79067;BME280;68470;50.224;14.348;2023-04-23T00:47:45;98787.25;;;9.34;79.42
79067;BME280;68470;50.224;14.348;2023-04-23T00:50:11;98777.00;;;9.04;80.03
79067;BME280;68470;50.224;14.348;2023-04-23T00:52:38;98781.94;;;8.97;80.16
79067;BME280;68470;50.224;14.348;2023-04-23T00:55:06;98775.91;;;9.05;79.78
79067;BME280;68470;50.224;14.348;2023-04-23T00:57:33;98780.00;;;8.92;80.54
79067;BME280;68470;50.224;14.348;2023-04-23T01:00:01;98775.88;;;8.95;80.89
79067;BME280;68470;50.224;14.348;2023-04-23T01:02:29;98773.59;;;8.71;81.79
79067;BME280;68470;50.224;14.348;2023-04-23T01:04:57;98773.66;;;8.82;80.62
79067;BME280;68470;50.224;14.348;2023-04-23T01:07:25;98787.28;;;8.66;81.58
79067;BME280;68470;50.224;14.348;2023-04-23T01:09:51;98779.59;;;8.58;81.53
79067;BME280;68470;50.224;14.348;2023-04-23T01:12:17;98801.00;;;8.66;81.84
79067;BME280;68470;50.224;14.348;2023-04-23T01:14:43;98802.88;;;8.56;81.79
79067;BME280;68470;50.224;14.348;2023-04-23T01:17:09;98794.69;;;8.61;81.42
79067;BME280;68470;50.224;14.348;2023-04-23T01:19:37;98804.84;;;8.65;81.40
79067;BME280;68470;50.224;14.348;2023-04-23T01:22:10;98800.38;;;8.49;82.26
79067;BME280;68470;50.224;14.348;2023-04-23T01:24:36;98787.84;;;8.68;81.21
79067;BME280;68470;50.224;14.348;2023-04-23T01:27:03;98810.41;;;8.81;80.80
79067;BME280;68470;50.224;14.348;2023-04-23T01:29:28;98786.47;;;8.61;80.77
79067;BME280;68470;50.224;14.348;2023-04-23T01:31:56;98804.88;;;8.70;81.11
79067;BME280;68470;50.224;14.348;2023-04-23T01:34:22;98794.19;;;8.74;80.46
79067;BME280;68470;50.224;14.348;2023-04-23T01:36:48;98800.00;;;8.88;79.93
79067;BME280;68470;50.224;14.348;2023-04-23T01:39:15;98803.84;;;8.87;80.14
79067;BME280;68470;50.224;14.348;2023-04-23T01:41:42;98810.94;;;8.78;80.56
79067;BME280;68470;50.224;14.348;2023-04-23T01:44:09;98796.06;;;8.58;81.51
79067;BME280;68470;50.224;14.348;2023-04-23T01:46:35;98792.66;;;8.41;82.68
79067;BME280;68470;50.224;14.348;2023-04-23T01:49:02;98798.88;;;8.31;82.74
79067;BME280;68470;50.224;14.348;2023-04-23T01:51:28;98807.63;;;8.28;83.31
79067;BME280;68470;50.224;14.348;2023-04-23T01:53:54;98803.44;;;8.15;84.00
79067;BME280;68470;50.224;14.348;2023-04-23T01:56:24;98772.34;;;8.00;83.56
79067;BME280;68470;50.224;14.348;2023-04-23T01:58:50;98786.91;;;8.05;83.52
79067;BME280;68470;50.224;14.348;2023-04-23T02:01:17;98794.34;;;8.10;83.84
79067;BME280;68470;50.224;14.348;2023-04-23T02:03:43;98788.59;;;8.11;83.00
79067;BME280;68470;50.224;14.348;2023-04-23T02:06:10;98800.22;;;8.29;82.59
79067;BME280;68470;50.224;14.348;2023-04-23T02:08:38;98793.25;;;8.11;82.87
79067;BME280;68470;50.224;14.348;2023-04-23T02:11:04;98809.16;;;8.09;83.47
79067;BME280;68470;50.224;14.348;2023-04-23T02:13:34;98806.50;;;7.87;85.04
79067;BME280;68470;50.224;14.348;2023-04-23T02:16:00;98796.34;;;7.82;84.17
79067;BME280;68470;50.224;14.348;2023-04-23T02:18:29;98787.25;;;7.77;84.96
79067;BME280;68470;50.224;14.348;2023-04-23T02:20:55;98785.47;;;7.61;86.22
79067;BME280;68470;50.224;14.348;2023-04-23T02:23:22;98793.63;;;7.55;86.11
79067;BME280;68470;50.224;14.348;2023-04-23T02:25:49;98796.59;;;7.81;85.32
79067;BME280;68470;50.224;14.348;2023-04-23T02:28:16;98779.59;;;7.47;86.18
79067;BME280;68470;50.224;14.348;2023-04-23T02:30:42;98790.28;;;7.48;86.12
79067;BME280;68470;50.224;14.348;2023-04-23T02:33:11;98804.38;;;7.62;86.34
79067;BME280;68470;50.224;14.348;2023-04-23T02:35:37;98774.69;;;7.49;86.03
79067;BME280;68470;50.224;14.348;2023-04-23T02:38:03;98793.63;;;7.55;86.44
79067;BME280;68470;50.224;14.348;2023-04-23T02:40:32;98802.50;;;7.68;86.55
79067;BME280;68470;50.224;14.348;2023-04-23T02:42:58;98803.47;;;7.83;85.69
79067;BME280;68470;50.224;14.348;2023-04-23T02:45:25;98822.34;;;7.80;85.67
79067;BME280;68470;50.224;14.348;2023-04-23T02:47:51;98805.22;;;8.00;84.84
79067;BME280;68470;50.224;14.348;2023-04-23T02:50:18;98808.78;;;7.95;85.67
79067;BME280;68470;50.224;14.348;2023-04-23T02:52:47;98805.19;;;7.90;85.26
79067;BME280;68470;50.224;14.348;2023-04-23T02:55:15;98806.47;;;8.19;83.97
79067;BME280;68470;50.224;14.348;2023-04-23T02:57:41;98810.56;;;8.17;84.01
79067;BME280;68470;50.224;14.348;2023-04-23T03:00:08;98800.31;;;8.39;83.36
79067;BME280;68470;50.224;14.348;2023-04-23T03:02:38;98801.81;;;8.20;83.73
79067;BME280;68470;50.224;14.348;2023-04-23T03:05:04;98809.56;;;8.33;83.85
79067;BME280;68470;50.224;14.348;2023-04-23T03:07:30;98801.25;;;8.18;84.83
79067;BME280;68470;50.224;14.348;2023-04-23T03:09:57;98822.16;;;8.24;85.03
79067;BME280;68470;50.224;14.348;2023-04-23T03:12:24;98807.34;;;8.25;84.24
79067;BME280;68470;50.224;14.348;2023-04-23T03:14:50;98826.34;;;8.36;84.87
79067;BME280;68470;50.224;14.348;2023-04-23T03:17:16;98823.75;;;8.20;85.27
79067;BME280;68470;50.224;14.348;2023-04-23T03:19:43;98804.69;;;7.98;86.07
79067;BME280;68470;50.224;14.348;2023-04-23T03:22:08;98794.13;;;7.79;86.20
79067;BME280;68470;50.224;14.348;2023-04-23T03:24:35;98803.81;;;7.92;86.38
79067;BME280;68470;50.224;14.348;2023-04-23T03:27:01;98794.28;;;8.00;85.63
79067;BME280;68470;50.224;14.348;2023-04-23T03:29:27;98807.38;;;8.30;84.37
79067;BME280;68470;50.224;14.348;2023-04-23T03:31:53;98803.63;;;8.41;84.10
79067;BME280;68470;50.224;14.348;2023-04-23T03:34:21;98788.59;;;8.54;83.10
79067;BME280;68470;50.224;14.348;2023-04-23T03:36:46;98790.56;;;8.58;83.40
79067;BME280;68470;50.224;14.348;2023-04-23T03:39:13;98797.38;;;8.56;84.44
79067;BME280;68470;50.224;14.348;2023-04-23T03:41:42;98785.25;;;8.41;84.75
79067;BME280;68470;50.224;14.348;2023-04-23T03:44:13;98794.34;;;8.47;85.90
79067;BME280;68470;50.224;14.348;2023-04-23T03:46:39;98774.88;;;8.49;86.64
79067;BME280;68470;50.224;14.348;2023-04-23T03:49:05;98786.13;;;8.52;85.94
79067;BME280;68470;50.224;14.348;2023-04-23T03:51:30;98786.38;;;8.46;86.16
79067;BME280;68470;50.224;14.348;2023-04-23T03:53:56;98741.94;;;8.01;87.03
79067;BME280;68470;50.224;14.348;2023-04-23T03:56:22;98733.41;;;7.93;88.86
79067;BME280;68470;50.224;14.348;2023-04-23T03:58:48;98710.38;;;7.94;89.14
79067;BME280;68470;50.224;14.348;2023-04-23T04:01:13;98710.41;;;8.46;87.93
79067;BME280;68470;50.224;14.348;2023-04-23T04:03:39;98733.31;;;8.77;88.49
79067;BME280;68470;50.224;14.348;2023-04-23T04:06:05;98722.81;;;8.59;88.11
79067;BME280;68470;50.224;14.348;2023-04-23T04:08:32;98730.81;;;8.76;86.90
79067;BME280;68470;50.224;14.348;2023-04-23T04:10:58;98781.88;;;8.77;88.89
79067;BME280;68470;50.224;14.348;2023-04-23T04:13:23;98792.69;;;9.14;86.61
79067;BME280;68470;50.224;14.348;2023-04-23T04:15:49;98763.63;;;9.48;84.13
79067;BME280;68470;50.224;14.348;2023-04-23T04:18:15;98785.38;;;9.60;84.16
79067;BME280;68470;50.224;14.348;2023-04-23T04:20:41;98748.91;;;10.65;78.83
79067;BME280;68470;50.224;14.348;2023-04-23T04:23:08;98749.69;;;10.80;79.10
79067;BME280;68470;50.224;14.348;2023-04-23T04:25:34;98760.56;;;10.36;83.60
79067;BME280;68470;50.224;14.348;2023-04-23T04:28:05;98754.47;;;10.49;79.08
79067;BME280;68470;50.224;14.348;2023-04-23T04:30:37;98763.22;;;10.67;79.84
79067;BME280;68470;50.224;14.348;2023-04-23T04:33:03;98785.84;;;10.48;83.29
79067;BME280;68470;50.224;14.348;2023-04-23T04:35:28;98788.09;;;10.06;84.73
79067;BME280;68470;50.224;14.348;2023-04-23T04:37:55;98793.03;;;9.68;86.04
79067;BME280;68470;50.224;14.348;2023-04-23T04:40:20;98791.69;;;9.60;86.22
79067;BME280;68470;50.224;14.348;2023-04-23T04:42:47;98789.75;;;9.66;87.40
79067;BME280;68470;50.224;14.348;2023-04-23T04:45:13;98802.94;;;9.69;87.65
79067;BME280;68470;50.224;14.348;2023-04-23T04:47:40;98798.25;;;9.54;87.56
79067;BME280;68470;50.224;14.348;2023-04-23T04:50:06;98796.31;;;9.50;87.61
79067;BME280;68470;50.224;14.348;2023-04-23T04:52:33;98816.09;;;9.57;87.42
79067;BME280;68470;50.224;14.348;2023-04-23T04:54:58;98805.41;;;9.71;87.12
79067;BME280;68470;50.224;14.348;2023-04-23T04:57:24;98808.97;;;9.51;88.38
79067;BME280;68470;50.224;14.348;2023-04-23T04:59:50;98804.84;;;9.43;87.93
79067;BME280;68470;50.224;14.348;2023-04-23T05:02:16;98805.13;;;9.52;87.15
79067;BME280;68470;50.224;14.348;2023-04-23T05:04:42;98805.13;;;9.57;87.04
79067;BME280;68470;50.224;14.348;2023-04-23T05:07:07;98811.19;;;9.79;87.33
79067;BME280;68470;50.224;14.348;2023-04-23T05:09:33;98805.41;;;9.65;87.18
79067;BME280;68470;50.224;14.348;2023-04-23T05:11:59;98829.59;;;9.84;87.05
79067;BME280;68470;50.224;14.348;2023-04-23T05:14:26;98823.03;;;9.95;85.79
79067;BME280;68470;50.224;14.348;2023-04-23T05:16:52;98800.72;;;10.17;84.64
79067;BME280;68470;50.224;14.348;2023-04-23T05:19:17;98804.31;;;10.43;83.83
79067;BME280;68470;50.224;14.348;2023-04-23T05:21:43;98799.91;;;10.42;82.52
79067;BME280;68470;50.224;14.348;2023-04-23T05:24:09;98822.16;;;10.50;81.11
79067;BME280;68470;50.224;14.348;2023-04-23T05:26:36;98800.72;;;10.47;80.36
79067;BME280;68470;50.224;14.348;2023-04-23T05:29:02;98812.44;;;10.73;80.37
79067;BME280;68470;50.224;14.348;2023-04-23T05:31:29;98814.28;;;11.03;78.87
79067;BME280;68470;50.224;14.348;2023-04-23T05:33:55;98813.53;;;11.37;77.18
79067;BME280;68470;50.224;14.348;2023-04-23T05:36:21;98810.84;;;11.32;77.68
79067;BME280;68470;50.224;14.348;2023-04-23T05:38:46;98804.78;;;11.30;77.74
79067;BME280;68470;50.224;14.348;2023-04-23T05:41:13;98815.75;;;11.35;77.67
79067;BME280;68470;50.224;14.348;2023-04-23T05:43:39;98815.06;;;11.58;75.75
79067;BME280;68470;50.224;14.348;2023-04-23T05:46:06;98812.88;;;11.60;75.15
79067;BME280;68470;50.224;14.348;2023-04-23T05:48:32;98806.84;;;11.53;76.49
79067;BME280;68470;50.224;14.348;2023-04-23T05:50:59;98798.47;;;11.68;76.29
79067;BME280;68470;50.224;14.348;2023-04-23T05:53:26;98811.38;;;11.73;77.19
79067;BME280;68470;50.224;14.348;2023-04-23T05:55:52;98825.91;;;11.89;77.08
79067;BME280;68470;50.224;14.348;2023-04-23T05:58:17;98804.94;;;11.93;76.95
79067;BME280;68470;50.224;14.348;2023-04-23T06:00:44;98803.84;;;11.89;74.46
79067;BME280;68470;50.224;14.348;2023-04-23T06:03:09;98811.91;;;11.75;75.46
79067;BME280;68470;50.224;14.348;2023-04-23T06:05:35;98807.22;;;11.75;76.62
79067;BME280;68470;50.224;14.348;2023-04-23T06:08:02;98799.97;;;11.90;76.45
79067;BME280;68470;50.224;14.348;2023-04-23T06:10:28;98795.44;;;12.04;76.42
79067;BME280;68470;50.224;14.348;2023-04-23T06:12:54;98798.88;;;12.20;76.54
79067;BME280;68470;50.224;14.348;2023-04-23T06:15:20;98805.16;;;12.30;75.38
79067;BME280;68470;50.224;14.348;2023-04-23T06:17:51;98808.66;;;12.36;76.29
79067;BME280;68470;50.224;14.348;2023-04-23T06:20:17;98795.91;;;12.45;74.52
79067;BME280;68470;50.224;14.348;2023-04-23T06:22:43;98814.69;;;12.67;74.57
79067;BME280;68470;50.224;14.348;2023-04-23T06:25:09;98792.03;;;12.70;74.68
79067;BME280;68470;50.224;14.348;2023-04-23T06:27:35;98794.19;;;12.73;73.94
79067;BME280;68470;50.224;14.348;2023-04-23T06:30:01;98804.13;;;12.74;75.06
79067;BME280;68470;50.224;14.348;2023-04-23T06:32:27;98802.44;;;12.78;74.04
79067;BME280;68470;50.224;14.348;2023-04-23T06:34:53;98813.00;;;12.71;73.27
79067;BME280;68470;50.224;14.348;2023-04-23T06:37:19;98783.47;;;12.43;75.51
79067;BME280;68470;50.224;14.348;2023-04-23T06:39:45;98798.53;;;12.55;74.96
79067;BME280;68470;50.224;14.348;2023-04-23T06:42:14;98796.00;;;12.59;74.64
79067;BME280;68470;50.224;14.348;2023-04-23T06:44:41;98777.44;;;12.41;74.23
79067;BME280;68470;50.224;14.348;2023-04-23T06:47:06;98794.09;;;12.30;75.66
79067;BME280;68470;50.224;14.348;2023-04-23T06:49:32;98788.22;;;12.37;75.87
79067;BME280;68470;50.224;14.348;2023-04-23T06:51:58;98802.09;;;12.56;75.69
79067;BME280;68470;50.224;14.348;2023-04-23T06:54:25;98815.34;;;12.83;74.84
79067;BME280;68470;50.224;14.348;2023-04-23T06:56:51;98797.38;;;12.85;74.22
79067;BME280;68470;50.224;14.348;2023-04-23T06:59:17;98808.16;;;13.06;74.61
79067;BME280;68470;50.224;14.348;2023-04-23T07:01:43;98803.81;;;13.23;73.18
79067;BME280;68470;50.224;14.348;2023-04-23T07:04:09;98791.47;;;13.16;72.60
79067;BME280;68470;50.224;14.348;2023-04-23T07:06:35;98793.53;;;13.29;72.38
79067;BME280;68470;50.224;14.348;2023-04-23T07:09:04;98804.59;;;13.67;71.25
79067;BME280;68470;50.224;14.348;2023-04-23T07:11:31;98782.25;;;13.63;71.30
79067;BME280;68470;50.224;14.348;2023-04-23T07:13:59;98813.38;;;13.88;71.33
79067;BME280;68470;50.224;14.348;2023-04-23T07:16:24;98807.19;;;14.09;69.52
79067;BME280;68470;50.224;14.348;2023-04-23T07:18:54;98808.94;;;14.38;68.89
79067;BME280;68470;50.224;14.348;2023-04-23T07:21:20;98803.50;;;14.79;67.46
79067;BME280;68470;50.224;14.348;2023-04-23T07:23:46;98803.91;;;15.14;67.16
79067;BME280;68470;50.224;14.348;2023-04-23T07:26:12;98788.53;;;15.44;66.17
79067;BME280;68470;50.224;14.348;2023-04-23T07:28:38;98781.81;;;15.58;64.95
79067;BME280;68470;50.224;14.348;2023-04-23T07:31:06;98800.84;;;15.65;65.13
79067;BME280;68470;50.224;14.348;2023-04-23T07:33:32;98791.38;;;15.66;65.26
79067;BME280;68470;50.224;14.348;2023-04-23T07:35:58;98797.84;;;15.61;65.90
79067;BME280;68470;50.224;14.348;2023-04-23T07:38:24;98792.38;;;15.20;67.56
79067;BME280;68470;50.224;14.348;2023-04-23T07:40:50;98799.09;;;15.42;67.81
79067;BME280;68470;50.224;14.348;2023-04-23T07:43:15;98793.63;;;15.14;69.03
79067;BME280;68470;50.224;14.348;2023-04-23T07:45:41;98808.38;;;15.23;68.36
79067;BME280;68470;50.224;14.348;2023-04-23T07:48:08;98793.38;;;15.24;67.88
79067;BME280;68470;50.224;14.348;2023-04-23T07:50:34;98796.59;;;15.31;69.53
79067;BME280;68470;50.224;14.348;2023-04-23T07:53:00;98787.81;;;15.38;68.92
79067;BME280;68470;50.224;14.348;2023-04-23T07:55:26;98810.19;;;15.69;67.92
79067;BME280;68470;50.224;14.348;2023-04-23T07:57:52;98802.50;;;15.39;69.05
79067;BME280;68470;50.224;14.348;2023-04-23T08:00:18;98818.44;;;15.33;69.58
79067;BME280;68470;50.224;14.348;2023-04-23T08:02:44;98809.25;;;14.96;70.34
79067;BME280;68470;50.224;14.348;2023-04-23T08:05:10;98809.44;;;14.72;71.90
79067;BME280;68470;50.224;14.348;2023-04-23T08:07:36;98816.38;;;14.56;74.55
79067;BME280;68470;50.224;14.348;2023-04-23T08:10:02;98819.41;;;14.41;73.99
79067;BME280;68470;50.224;14.348;2023-04-23T08:12:35;98827.34;;;14.15;75.67
79067;BME280;68470;50.224;14.348;2023-04-23T08:15:05;98841.28;;;14.24;77.73
79067;BME280;68470;50.224;14.348;2023-04-23T08:17:32;98827.06;;;14.30;76.87
79067;BME280;68470;50.224;14.348;2023-04-23T08:19:58;98822.44;;;14.44;75.34
79067;BME280;68470;50.224;14.348;2023-04-23T08:22:24;98832.09;;;14.74;74.46
79067;BME280;68470;50.224;14.348;2023-04-23T08:24:50;98826.88;;;14.87;73.79
79067;BME280;68470;50.224;14.348;2023-04-23T08:27:16;98836.31;;;15.27;73.05
79067;BME280;68470;50.224;14.348;2023-04-23T08:29:44;98819.91;;;15.17;70.86
79067;BME280;68470;50.224;14.348;2023-04-23T08:32:11;98833.25;;;15.28;71.81
79067;BME280;68470;50.224;14.348;2023-04-23T08:34:37;98838.78;;;15.28;69.81
79067;BME280;68470;50.224;14.348;2023-04-23T08:37:04;98843.50;;;15.28;70.10
79067;BME280;68470;50.224;14.348;2023-04-23T08:39:32;98825.03;;;15.23;69.57
79067;BME280;68470;50.224;14.348;2023-04-23T08:42:04;98832.50;;;15.37;68.97
79067;BME280;68470;50.224;14.348;2023-04-23T08:44:35;98827.63;;;15.56;68.08
79067;BME280;68470;50.224;14.348;2023-04-23T08:47:03;98817.19;;;15.67;67.76
79067;BME280;68470;50.224;14.348;2023-04-23T08:49:32;98817.00;;;15.63;68.36
79067;BME280;68470;50.224;14.348;2023-04-23T08:52:10;98845.22;;;15.51;69.25
79067;BME280;68470;50.224;14.348;2023-04-23T08:54:40;98849.66;;;15.66;67.03
79067;BME280;68470;50.224;14.348;2023-04-23T08:57:07;98845.09;;;15.70;68.61
79067;BME280;68470;50.224;14.348;2023-04-23T08:59:35;98850.19;;;15.90;67.22
79067;BME280;68470;50.224;14.348;2023-04-23T09:02:02;98844.50;;;15.95;66.08
79067;BME280;68470;50.224;14.348;2023-04-23T09:04:33;98827.94;;;16.04;65.28
79067;BME280;68470;50.224;14.348;2023-04-23T09:07:00;98844.91;;;16.25;65.28
79067;BME280;68470;50.224;14.348;2023-04-23T09:09:28;98858.78;;;16.03;66.74
79067;BME280;68470;50.224;14.348;2023-04-23T09:11:55;98853.88;;;16.00;63.49
79067;BME280;68470;50.224;14.348;2023-04-23T09:14:22;98839.91;;;15.91;60.75
79067;BME280;68470;50.224;14.348;2023-04-23T09:16:52;98844.00;;;15.93;60.23
79067;BME280;68470;50.224;14.348;2023-04-23T09:19:18;98850.13;;;16.04;60.08
79067;BME280;68470;50.224;14.348;2023-04-23T09:21:45;98850.97;;;16.05;60.10
79067;BME280;68470;50.224;14.348;2023-04-23T09:24:11;98862.81;;;15.97;59.44
79067;BME280;68470;50.224;14.348;2023-04-23T09:26:45;98854.53;;;15.83;60.25
79067;BME280;68470;50.224;14.348;2023-04-23T09:29:21;98857.97;;;16.02;62.05
79067;BME280;68470;50.224;14.348;2023-04-23T09:31:55;98853.34;;;15.98;63.87
79067;BME280;68470;50.224;14.348;2023-04-23T09:34:23;98867.09;;;15.80;62.17
79067;BME280;68470;50.224;14.348;2023-04-23T09:36:51;98877.44;;;15.88;66.96
79067;BME280;68470;50.224;14.348;2023-04-23T09:39:18;98861.91;;;15.87;62.95
79067;BME280;68470;50.224;14.348;2023-04-23T09:41:44;98857.78;;;15.99;66.58
79067;BME280;68470;50.224;14.348;2023-04-23T09:44:11;98863.88;;;16.09;66.44
79067;BME280;68470;50.224;14.348;2023-04-23T09:46:40;98866.47;;;16.06;63.64
79067;BME280;68470;50.224;14.348;2023-04-23T09:49:08;98867.69;;;15.77;63.27
79067;BME280;68470;50.224;14.348;2023-04-23T09:51:44;98870.78;;;15.76;66.05
79067;BME280;68470;50.224;14.348;2023-04-23T09:54:15;98860.53;;;15.49;69.28
79067;BME280;68470;50.224;14.348;2023-04-23T09:56:43;98857.66;;;15.54;69.65
79067;BME280;68470;50.224;14.348;2023-04-23T09:59:39;98867.81;;;15.45;68.68
79067;BME280;68470;50.224;14.348;2023-04-23T10:02:06;98860.88;;;15.20;67.67
79067;BME280;68470;50.224;14.348;2023-04-23T10:04:33;98870.81;;;15.21;67.58
79067;BME280;68470;50.224;14.348;2023-04-23T10:07:03;98876.06;;;15.22;70.65
79067;BME280;68470;50.224;14.348;2023-04-23T10:09:29;98879.13;;;15.07;69.41
79067;BME280;68470;50.224;14.348;2023-04-23T10:11:58;98884.56;;;15.26;69.10
79067;BME280;68470;50.224;14.348;2023-04-23T10:14:25;98878.63;;;15.32;69.60
79067;BME280;68470;50.224;14.348;2023-04-23T10:16:57;98874.53;;;15.30;73.59
79067;BME280;68470;50.224;14.348;2023-04-23T10:19:23;98883.56;;;15.35;70.52
79067;BME280;68470;50.224;14.348;2023-04-23T10:21:58;98865.47;;;15.24;64.84
79067;BME280;68470;50.224;14.348;2023-04-23T10:24:34;98868.78;;;15.13;65.33
79067;BME280;68470;50.224;14.348;2023-04-23T10:27:03;98868.25;;;15.11;67.38
79067;BME280;68470;50.224;14.348;2023-04-23T10:29:33;98858.91;;;15.07;66.45
79067;BME280;68470;50.224;14.348;2023-04-23T10:32:02;98872.88;;;15.01;66.94
79067;BME280;68470;50.224;14.348;2023-04-23T10:34:30;98875.00;;;14.91;66.94
79067;BME280;68470;50.224;14.348;2023-04-23T10:36:58;98861.78;;;14.88;66.71
79067;BME280;68470;50.224;14.348;2023-04-23T10:39:31;98871.03;;;14.97;67.98
79067;BME280;68470;50.224;14.348;2023-04-23T10:41:59;98865.28;;;15.07;68.28
79067;BME280;68470;50.224;14.348;2023-04-23T10:44:54;98860.03;;;15.19;70.19
79067;BME280;68470;50.224;14.348;2023-04-23T10:47:20;98878.72;;;15.27;67.89
79067;BME280;68470;50.224;14.348;2023-04-23T10:49:47;98861.16;;;15.32;70.03
79067;BME280;68470;50.224;14.348;2023-04-23T10:52:15;98853.88;;;15.36;66.39
79067;BME280;68470;50.224;14.348;2023-04-23T10:55:01;98867.09;;;15.53;66.99
79067;BME280;68470;50.224;14.348;2023-04-23T10:57:28;98860.25;;;15.64;66.03
79067;BME280;68470;50.224;14.348;2023-04-23T10:59:54;98843.13;;;15.84;64.97
79067;BME280;68470;50.224;14.348;2023-04-23T11:02:23;98832.28;;;15.97;65.70
79067;BME280;68470;50.224;14.348;2023-04-23T11:04:58;98840.34;;;16.07;66.18
79067;BME280;68470;50.224;14.348;2023-04-23T11:07:30;98838.84;;;16.01;65.64
79067;BME280;68470;50.224;14.348;2023-04-23T11:10:09;98836.75;;;16.06;65.49
79067;BME280;68470;50.224;14.348;2023-04-23T11:12:38;98837.56;;;15.84;64.59
79067;BME280;68470;50.224;14.348;2023-04-23T11:15:12;98833.78;;;15.80;63.70
79067;BME280;68470;50.224;14.348;2023-04-23T11:20:07;98833.44;;;16.18;65.24
79067;BME280;68470;50.224;14.348;2023-04-23T11:22:46;98837.97;;;16.14;65.80
79067;BME280;68470;50.224;14.348;2023-04-23T11:25:14;98850.22;;;16.35;64.47
79067;BME280;68470;50.224;14.348;2023-04-23T11:27:45;98836.03;;;16.45;62.04
79067;BME280;68470;50.224;14.348;2023-04-23T11:30:18;98811.28;;;15.82;63.44
79067;BME280;68470;50.224;14.348;2023-04-23T11:32:48;98845.28;;;16.32;63.75
79067;BME280;68470;50.224;14.348;2023-04-23T11:35:15;98855.31;;;16.42;62.40
79067;BME280;68470;50.224;14.348;2023-04-23T11:37:42;98854.88;;;16.71;60.55
79067;BME280;68470;50.224;14.348;2023-04-23T11:40:10;98845.75;;;16.57;61.44
79067;BME280;68470;50.224;14.348;2023-04-23T11:42:48;98848.28;;;16.44;61.61
79067;BME280;68470;50.224;14.348;2023-04-23T11:45:15;98860.69;;;16.38;63.46
79067;BME280;68470;50.224;14.348;2023-04-23T11:47:42;98828.13;;;16.08;65.25
79067;BME280;68470;50.224;14.348;2023-04-23T11:50:08;98850.00;;;15.87;64.45
79067;BME280;68470;50.224;14.348;2023-04-23T11:52:34;98849.34;;;15.90;66.78
79067;BME280;68470;50.224;14.348;2023-04-23T11:55:07;98845.88;;;15.62;63.73
79067;BME280;68470;50.224;14.348;2023-04-23T11:57:40;98845.72;;;16.03;65.07
79067;BME280;68470;50.224;14.348;2023-04-23T12:03:00;98840.34;;;16.29;62.69
79067;BME280;68470;50.224;14.348;2023-04-23T12:05:31;98852.66;;;16.37;62.64
79067;BME280;68470;50.224;14.348;2023-04-23T12:08:17;98847.44;;;16.35;62.67
79067;BME280;68470;50.224;14.348;2023-04-23T12:10:49;98850.22;;;16.35;63.96
79067;BME280;68470;50.224;14.348;2023-04-23T12:13:17;98852.72;;;16.68;63.47
79067;BME280;68470;50.224;14.348;2023-04-23T12:15:48;98850.22;;;16.89;63.61
79067;BME280;68470;50.224;14.348;2023-04-23T12:18:15;98850.03;;;16.85;62.20
79067;BME280;68470;50.224;14.348;2023-04-23T12:20:41;98853.97;;;16.84;60.98
79067;BME280;68470;50.224;14.348;2023-04-23T12:23:07;98855.78;;;16.89;60.12
79067;BME280;68470;50.224;14.348;2023-04-23T12:25:34;98850.06;;;16.94;60.51
79067;BME280;68470;50.224;14.348;2023-04-23T12:28:01;98850.47;;;16.78;64.25
79067;BME280;68470;50.224;14.348;2023-04-23T12:30:32;98847.19;;;16.68;62.67
79067;BME280;68470;50.224;14.348;2023-04-23T12:33:02;98844.91;;;16.47;60.65
79067;BME280;68470;50.224;14.348;2023-04-23T12:35:43;98854.72;;;16.76;60.73
79067;BME280;68470;50.224;14.348;2023-04-23T12:38:23;98844.34;;;16.90;60.70
79067;BME280;68470;50.224;14.348;2023-04-23T12:40:50;98844.22;;;17.52;60.87
79067;BME280;68470;50.224;14.348;2023-04-23T12:43:16;98842.38;;;17.30;57.80
79067;BME280;68470;50.224;14.348;2023-04-23T12:45:42;98845.44;;;17.68;58.46
79067;BME280;68470;50.224;14.348;2023-04-23T12:48:07;98856.66;;;17.63;57.70
79067;BME280;68470;50.224;14.348;2023-04-23T12:50:33;98845.38;;;17.51;57.28
79067;BME280;68470;50.224;14.348;2023-04-23T12:52:59;98859.84;;;18.05;57.17
79067;BME280;68470;50.224;14.348;2023-04-23T12:55:25;98834.16;;;18.17;56.01
79067;BME280;68470;50.224;14.348;2023-04-23T12:57:51;98838.38;;;17.80;57.37
79067;BME280;68470;50.224;14.348;2023-04-23T13:00:17;98847.03;;;17.12;57.92